sensor_id;sensor_type;location;lat;lon;timestamp;pressure;altitude;pressure_sealevel;temperature;humidity
28630;BME280;15817;42.130;24.762;2022-09-09T00:00:32;100028.25;;;22.05;67.25
28630;BME280;15817;42.130;24.762;2022-09-09T00:03:32;100022.47;;;21.94;67.19
28630;BME280;15817;42.130;24.762;2022-09-09T00:06:21;100026.25;;;21.91;67.19
28630;BME280;15817;42.130;24.762;2022-09-09T00:09:10;100037.06;;;21.91;67.30
28630;BME280;15817;42.130;24.762;2022-09-09T00:11:46;100033.47;;;21.91;67.28
28630;BME280;15817;42.130;24.762;2022-09-09T00:16:57;100033.22;;;21.78;67.69
28630;BME280;15817;42.130;24.762;2022-09-09T00:19:48;100038.56;;;21.80;67.60
28630;BME280;15817;42.130;24.762;2022-09-09T00:22:20;100027.13;;;21.73;68.03
28630;BME280;15817;42.130;24.762;2022-09-09T00:24:52;100032.53;;;21.73;66.72
28630;BME280;15817;42.130;24.762;2022-09-09T00:29:57;100031.53;;;21.76;66.34
28630;BME280;15817;42.130;24.762;2022-09-09T00:32:28;100030.56;;;21.77;65.80
28630;BME280;15817;42.130;24.762;2022-09-09T00:35:24;100041.34;;;21.78;65.58
28630;BME280;15817;42.130;24.762;2022-09-09T00:37:53;100044.19;;;21.75;65.33
28630;BME280;15817;42.130;24.762;2022-09-09T00:43:21;100051.94;;;21.64;65.83
28630;BME280;15817;42.130;24.762;2022-09-09T00:46:21;100044.22;;;21.56;65.92
28630;BME280;15817;42.130;24.762;2022-09-09T00:57:03;100051.06;;;21.26;68.88
28630;BME280;15817;42.130;24.762;2022-09-09T01:02:28;100054.22;;;21.15;69.86
28630;BME280;15817;42.130;24.762;2022-09-09T01:04:58;100043.31;;;21.18;69.84
28630;BME280;15817;42.130;24.762;2022-09-09T01:07:25;100041.66;;;21.14;70.17
28630;BME280;15817;42.130;24.762;2022-09-09T01:09:57;100046.19;;;21.14;69.87
28630;BME280;15817;42.130;24.762;2022-09-09T01:17:34;100050.50;;;21.18;69.59
28630;BME280;15817;42.130;24.762;2022-09-09T01:20:20;100041.00;;;21.09;69.90
28630;BME280;15817;42.130;24.762;2022-09-09T01:23:17;100049.25;;;21.06;70.02
28630;BME280;15817;42.130;24.762;2022-09-09T01:28:39;100053.97;;;21.01;70.38
28630;BME280;15817;42.130;24.762;2022-09-09T01:31:15;100043.09;;;21.03;70.35
28630;BME280;15817;42.130;24.762;2022-09-09T01:33:45;100039.44;;;21.04;70.30
28630;BME280;15817;42.130;24.762;2022-09-09T01:36:24;100055.41;;;21.10;70.23
28630;BME280;15817;42.130;24.762;2022-09-09T01:38:53;100042.91;;;21.07;70.00
28630;BME280;15817;42.130;24.762;2022-09-09T01:41:19;100050.00;;;21.10;69.40
28630;BME280;15817;42.130;24.762;2022-09-09T01:43:56;100029.56;;;21.03;69.64
28630;BME280;15817;42.130;24.762;2022-09-09T01:46:23;100041.94;;;21.08;69.68
28630;BME280;15817;42.130;24.762;2022-09-09T01:48:52;100032.56;;;20.96;70.11
28630;BME280;15817;42.130;24.762;2022-09-09T01:51:19;100038.19;;;20.92;70.68
28630;BME280;15817;42.130;24.762;2022-09-09T01:53:47;100032.13;;;20.87;71.39
28630;BME280;15817;42.130;24.762;2022-09-09T01:56:31;100042.78;;;20.90;71.56
28630;BME280;15817;42.130;24.762;2022-09-09T02:04:39;100049.28;;;20.66;73.25
28630;BME280;15817;42.130;24.762;2022-09-09T02:10:09;100040.56;;;20.59;73.79
28630;BME280;15817;42.130;24.762;2022-09-09T02:12:42;100038.00;;;20.56;73.85
28630;BME280;15817;42.130;24.762;2022-09-09T02:15:30;100037.34;;;20.51;74.03
28630;BME280;15817;42.130;24.762;2022-09-09T02:17:58;100033.63;;;20.53;74.08
28630;BME280;15817;42.130;24.762;2022-09-09T02:20:28;100031.72;;;20.55;73.96
28630;BME280;15817;42.130;24.762;2022-09-09T02:22:59;100022.66;;;20.56;73.96
28630;BME280;15817;42.130;24.762;2022-09-09T02:25:28;100022.72;;;20.55;74.26
28630;BME280;15817;42.130;24.762;2022-09-09T02:28:04;100030.59;;;20.61;74.23
28630;BME280;15817;42.130;24.762;2022-09-09T02:30:33;100037.25;;;20.73;73.71
28630;BME280;15817;42.130;24.762;2022-09-09T02:33:04;100026.50;;;20.71;73.16
28630;BME280;15817;42.130;24.762;2022-09-09T02:38:13;100028.75;;;20.62;73.09
28630;BME280;15817;42.130;24.762;2022-09-09T02:40:48;100031.25;;;20.46;73.86
28630;BME280;15817;42.130;24.762;2022-09-09T02:43:14;100038.59;;;20.42;74.07
28630;BME280;15817;42.130;24.762;2022-09-09T02:46:08;100035.31;;;20.34;74.15
28630;BME280;15817;42.130;24.762;2022-09-09T02:49:00;100038.31;;;20.28;74.65
28630;BME280;15817;42.130;24.762;2022-09-09T02:51:40;100044.94;;;20.19;74.78
28630;BME280;15817;42.130;24.762;2022-09-09T02:56:49;100044.94;;;20.19;74.84
28630;BME280;15817;42.130;24.762;2022-09-09T02:59:18;100046.66;;;20.22;75.05
28630;BME280;15817;42.130;24.762;2022-09-09T03:01:44;100043.94;;;20.22;75.24
28630;BME280;15817;42.130;24.762;2022-09-09T03:04:10;100046.72;;;20.20;75.46
28630;BME280;15817;42.130;24.762;2022-09-09T03:06:37;100042.13;;;20.22;75.51
28630;BME280;15817;42.130;24.762;2022-09-09T03:09:14;100051.81;;;20.28;75.47
28630;BME280;15817;42.130;24.762;2022-09-09T03:11:40;100036.78;;;20.21;75.70
28630;BME280;15817;42.130;24.762;2022-09-09T03:14:06;100051.13;;;20.23;76.16
28630;BME280;15817;42.130;24.762;2022-09-09T03:16:34;100051.81;;;20.28;75.91
28630;BME280;15817;42.130;24.762;2022-09-09T03:19:01;100051.88;;;20.27;75.86
28630;BME280;15817;42.130;24.762;2022-09-09T03:21:27;100038.06;;;20.12;76.36
28630;BME280;15817;42.130;24.762;2022-09-09T03:23:54;100056.03;;;20.13;76.46
28630;BME280;15817;42.130;24.762;2022-09-09T03:26:20;100061.97;;;20.21;76.29
28630;BME280;15817;42.130;24.762;2022-09-09T03:28:46;100056.16;;;20.10;76.04
28630;BME280;15817;42.130;24.762;2022-09-09T03:31:16;100056.97;;;20.12;76.03
28630;BME280;15817;42.130;24.762;2022-09-09T03:33:42;100075.53;;;20.20;75.95
28630;BME280;15817;42.130;24.762;2022-09-09T03:36:11;100069.47;;;20.15;75.70
28630;BME280;15817;42.130;24.762;2022-09-09T03:38:37;100078.47;;;20.15;75.68
28630;BME280;15817;42.130;24.762;2022-09-09T03:41:03;100070.22;;;20.18;75.66
28630;BME280;15817;42.130;24.762;2022-09-09T03:43:32;100067.25;;;20.24;75.19
28630;BME280;15817;42.130;24.762;2022-09-09T03:45:58;100079.69;;;20.29;75.38
28630;BME280;15817;42.130;24.762;2022-09-09T03:48:26;100076.84;;;20.32;74.90
28630;BME280;15817;42.130;24.762;2022-09-09T03:51:10;100073.53;;;20.25;75.00
28630;BME280;15817;42.130;24.762;2022-09-09T03:53:36;100068.13;;;20.25;74.88
28630;BME280;15817;42.130;24.762;2022-09-09T03:56:04;100075.31;;;20.26;75.20
28630;BME280;15817;42.130;24.762;2022-09-09T03:58:37;100065.84;;;20.16;75.25
28630;BME280;15817;42.130;24.762;2022-09-09T04:03:39;100071.97;;;20.19;75.48
28630;BME280;15817;42.130;24.762;2022-09-09T04:06:07;100065.00;;;20.14;75.48
28630;BME280;15817;42.130;24.762;2022-09-09T04:08:35;100057.91;;;20.11;75.53
28630;BME280;15817;42.130;24.762;2022-09-09T04:11:02;100066.06;;;20.10;75.89
28630;BME280;15817;42.130;24.762;2022-09-09T04:13:30;100077.75;;;20.10;75.90
28630;BME280;15817;42.130;24.762;2022-09-09T04:15:59;100070.59;;;20.09;76.22
28630;BME280;15817;42.130;24.762;2022-09-09T04:18:25;100079.50;;;20.11;76.07
28630;BME280;15817;42.130;24.762;2022-09-09T04:20:54;100077.69;;;20.12;76.03
28630;BME280;15817;42.130;24.762;2022-09-09T04:23:25;100073.19;;;20.12;75.60
28630;BME280;15817;42.130;24.762;2022-09-09T04:25:53;100054.59;;;20.05;74.62
28630;BME280;15817;42.130;24.762;2022-09-09T04:28:22;100064.25;;;20.10;74.47
28630;BME280;15817;42.130;24.762;2022-09-09T04:30:49;100066.88;;;20.12;75.06
28630;BME280;15817;42.130;24.762;2022-09-09T04:33:16;100069.72;;;20.09;75.67
28630;BME280;15817;42.130;24.762;2022-09-09T04:35:49;100063.44;;;20.08;75.76
28630;BME280;15817;42.130;24.762;2022-09-09T04:38:17;100066.22;;;20.07;75.97
28630;BME280;15817;42.130;24.762;2022-09-09T04:40:46;100072.56;;;20.06;75.78
28630;BME280;15817;42.130;24.762;2022-09-09T04:43:13;100069.81;;;20.07;75.60
28630;BME280;15817;42.130;24.762;2022-09-09T04:45:46;100058.03;;;20.08;74.67
28630;BME280;15817;42.130;24.762;2022-09-09T04:48:12;100075.81;;;20.14;75.99
28630;BME280;15817;42.130;24.762;2022-09-09T04:50:38;100086.44;;;20.18;75.34
28630;BME280;15817;42.130;24.762;2022-09-09T04:53:05;100089.13;;;20.18;75.78
28630;BME280;15817;42.130;24.762;2022-09-09T04:55:32;100086.22;;;20.23;75.86
28630;BME280;15817;42.130;24.762;2022-09-09T04:58:06;100087.31;;;20.19;76.12
28630;BME280;15817;42.130;24.762;2022-09-09T05:00:34;100102.66;;;20.18;76.18
28630;BME280;15817;42.130;24.762;2022-09-09T05:03:06;100093.06;;;20.10;76.63
28630;BME280;15817;42.130;24.762;2022-09-09T05:05:36;100105.41;;;20.17;75.92
28630;BME280;15817;42.130;24.762;2022-09-09T05:08:04;100096.47;;;20.15;74.92
28630;BME280;15817;42.130;24.762;2022-09-09T05:10:30;100099.41;;;20.09;75.08
28630;BME280;15817;42.130;24.762;2022-09-09T05:12:57;100101.38;;;20.05;75.31
28630;BME280;15817;42.130;24.762;2022-09-09T05:15:25;100097.53;;;20.11;75.47
28630;BME280;15817;42.130;24.762;2022-09-09T05:17:51;100098.34;;;20.13;75.70
28630;BME280;15817;42.130;24.762;2022-09-09T05:23:19;100086.69;;;20.12;75.66
28630;BME280;15817;42.130;24.762;2022-09-09T05:25:54;100083.97;;;20.12;74.92
28630;BME280;15817;42.130;24.762;2022-09-09T05:28:21;100091.09;;;20.15;74.37
28630;BME280;15817;42.130;24.762;2022-09-09T05:30:58;100092.63;;;20.20;74.12
28630;BME280;15817;42.130;24.762;2022-09-09T05:33:28;100082.09;;;20.14;73.46
28630;BME280;15817;42.130;24.762;2022-09-09T05:35:59;100072.34;;;20.10;73.37
28630;BME280;15817;42.130;24.762;2022-09-09T05:38:29;100078.69;;;20.09;73.37
28630;BME280;15817;42.130;24.762;2022-09-09T05:40:56;100088.38;;;20.15;73.05
28630;BME280;15817;42.130;24.762;2022-09-09T05:43:23;100090.09;;;20.17;72.74
28630;BME280;15817;42.130;24.762;2022-09-09T05:45:59;100095.34;;;20.20;72.60
28630;BME280;15817;42.130;24.762;2022-09-09T05:48:31;100087.31;;;20.19;72.26
28630;BME280;15817;42.130;24.762;2022-09-09T05:50:58;100100.00;;;20.17;72.09
28630;BME280;15817;42.130;24.762;2022-09-09T05:53:28;100089.44;;;20.11;71.95
28630;BME280;15817;42.130;24.762;2022-09-09T05:56:06;100085.84;;;20.10;72.10
28630;BME280;15817;42.130;24.762;2022-09-09T05:58:34;100090.25;;;20.13;72.12
28630;BME280;15817;42.130;24.762;2022-09-09T06:01:11;100087.50;;;20.14;72.20
28630;BME280;15817;42.130;24.762;2022-09-09T06:03:39;100081.34;;;20.11;71.80
28630;BME280;15817;42.130;24.762;2022-09-09T06:06:08;100083.16;;;20.10;71.56
28630;BME280;15817;42.130;24.762;2022-09-09T06:08:44;100057.91;;;20.11;71.46
28630;BME280;15817;42.130;24.762;2022-09-09T06:11:20;100058.91;;;20.09;71.05
28630;BME280;15817;42.130;24.762;2022-09-09T06:14:10;100057.78;;;20.14;70.78
28630;BME280;15817;42.130;24.762;2022-09-09T06:16:38;100054.09;;;20.17;70.48
28630;BME280;15817;42.130;24.762;2022-09-09T06:19:11;100063.69;;;20.24;70.27
28630;BME280;15817;42.130;24.762;2022-09-09T06:21:40;100073.41;;;20.28;70.08
28630;BME280;15817;42.130;24.762;2022-09-09T06:24:08;100072.31;;;20.32;70.18
28630;BME280;15817;42.130;24.762;2022-09-09T06:26:39;100069.53;;;20.35;70.15
28630;BME280;15817;42.130;24.762;2022-09-09T06:29:16;100065.88;;;20.36;69.86
28630;BME280;15817;42.130;24.762;2022-09-09T06:31:42;100058.75;;;20.34;70.37
28630;BME280;15817;42.130;24.762;2022-09-09T06:34:22;100065.00;;;20.36;70.58
28630;BME280;15817;42.130;24.762;2022-09-09T06:36:56;100079.22;;;20.41;70.84
28630;BME280;15817;42.130;24.762;2022-09-09T06:39:24;100076.38;;;20.44;70.97
28630;BME280;15817;42.130;24.762;2022-09-09T06:41:51;100083.41;;;20.48;70.85
28630;BME280;15817;42.130;24.762;2022-09-09T06:44:39;100080.00;;;20.43;70.53
28630;BME280;15817;42.130;24.762;2022-09-09T06:47:08;100071.91;;;20.43;70.71
28630;BME280;15817;42.130;24.762;2022-09-09T06:49:38;100070.97;;;20.44;70.34
28630;BME280;15817;42.130;24.762;2022-09-09T06:52:19;100075.41;;;20.45;70.85
28630;BME280;15817;42.130;24.762;2022-09-09T06:54:49;100083.13;;;20.54;70.62
28630;BME280;15817;42.130;24.762;2022-09-09T06:57:19;100077.00;;;20.50;70.10
28630;BME280;15817;42.130;24.762;2022-09-09T06:59:45;100075.84;;;20.56;70.27
28630;BME280;15817;42.130;24.762;2022-09-09T07:02:10;100078.28;;;20.62;70.00
28630;BME280;15817;42.130;24.762;2022-09-09T07:04:36;100080.72;;;20.68;69.80
28630;BME280;15817;42.130;24.762;2022-09-09T07:07:03;100080.38;;;20.76;69.96
28630;BME280;15817;42.130;24.762;2022-09-09T07:09:32;100085.38;;;20.85;69.51
28630;BME280;15817;42.130;24.762;2022-09-09T07:11:58;100071.63;;;20.89;68.93
28630;BME280;15817;42.130;24.762;2022-09-09T07:14:29;100065.22;;;20.92;68.43
28630;BME280;15817;42.130;24.762;2022-09-09T07:16:58;100071.63;;;21.10;67.93
28630;BME280;15817;42.130;24.762;2022-09-09T07:19:30;100069.41;;;21.19;67.65
28630;BME280;15817;42.130;24.762;2022-09-09T07:21:56;100084.72;;;21.39;67.47
28630;BME280;15817;42.130;24.762;2022-09-09T07:24:23;100077.91;;;21.49;66.19
28630;BME280;15817;42.130;24.762;2022-09-09T07:26:50;100078.28;;;21.60;65.28
28630;BME280;15817;42.130;24.762;2022-09-09T07:29:18;100072.13;;;21.76;65.03
28630;BME280;15817;42.130;24.762;2022-09-09T07:31:43;100076.16;;;21.86;64.76
28630;BME280;15817;42.130;24.762;2022-09-09T07:34:13;100076.94;;;22.07;64.15
28630;BME280;15817;42.130;24.762;2022-09-09T07:36:40;100082.16;;;22.28;63.23
28630;BME280;15817;42.130;24.762;2022-09-09T07:39:11;100071.03;;;22.34;62.88
28630;BME280;15817;42.130;24.762;2022-09-09T07:41:44;100082.53;;;22.57;63.06
28630;BME280;15817;42.130;24.762;2022-09-09T07:44:14;100070.41;;;22.64;61.77
28630;BME280;15817;42.130;24.762;2022-09-09T07:46:43;100071.13;;;22.85;61.02
28630;BME280;15817;42.130;24.762;2022-09-09T07:49:14;100065.63;;;23.03;60.33
28630;BME280;15817;42.130;24.762;2022-09-09T07:51:43;100066.44;;;23.21;59.81
28630;BME280;15817;42.130;24.762;2022-09-09T07:54:14;100063.78;;;23.37;59.67
28630;BME280;15817;42.130;24.762;2022-09-09T07:56:43;100060.59;;;23.62;58.98
28630;BME280;15817;42.130;24.762;2022-09-09T07:59:10;100066.47;;;23.86;58.43
28630;BME280;15817;42.130;24.762;2022-09-09T08:01:46;100055.41;;;24.04;58.12
28630;BME280;15817;42.130;24.762;2022-09-09T08:04:16;100058.03;;;24.06;56.76
28630;BME280;15817;42.130;24.762;2022-09-09T08:06:46;100045.66;;;24.16;56.31
28630;BME280;15817;42.130;24.762;2022-09-09T08:09:14;100045.16;;;24.25;56.19
28630;BME280;15817;42.130;24.762;2022-09-09T08:11:42;100052.88;;;24.47;55.78
28630;BME280;15817;42.130;24.762;2022-09-09T08:14:09;100050.13;;;24.63;55.17
28630;BME280;15817;42.130;24.762;2022-09-09T08:16:42;100045.75;;;24.60;54.94
28630;BME280;15817;42.130;24.762;2022-09-09T08:19:10;100041.00;;;24.64;55.52
28630;BME280;15817;42.130;24.762;2022-09-09T08:21:39;100048.63;;;24.87;54.75
28630;BME280;15817;42.130;24.762;2022-09-09T08:24:06;100055.31;;;24.81;54.16
28630;BME280;15817;42.130;24.762;2022-09-09T08:26:37;100036.97;;;24.85;54.37
28630;BME280;15817;42.130;24.762;2022-09-09T08:29:06;100035.56;;;25.08;53.84
28630;BME280;15817;42.130;24.762;2022-09-09T08:31:37;100034.59;;;25.23;53.34
28630;BME280;15817;42.130;24.762;2022-09-09T08:34:08;100028.38;;;25.35;52.82
28630;BME280;15817;42.130;24.762;2022-09-09T08:36:39;100019.69;;;25.43;52.85
28630;BME280;15817;42.130;24.762;2022-09-09T08:39:06;100030.66;;;25.55;52.21
28630;BME280;15817;42.130;24.762;2022-09-09T08:50:08;100031.50;;;26.11;51.73
28630;BME280;15817;42.130;24.762;2022-09-09T08:55:50;100019.69;;;26.25;50.51
28630;BME280;15817;42.130;24.762;2022-09-09T09:12:06;100010.88;;;26.74;49.01
28630;BME280;15817;42.130;24.762;2022-09-09T09:14:39;100007.81;;;26.91;48.66
28630;BME280;15817;42.130;24.762;2022-09-09T09:17:14;100008.19;;;26.99;48.42
28630;BME280;15817;42.130;24.762;2022-09-09T09:19:42;99993.31;;;27.03;48.15
28630;BME280;15817;42.130;24.762;2022-09-09T09:25:15;100004.31;;;27.27;47.60
28630;BME280;15817;42.130;24.762;2022-09-09T09:30:39;99979.06;;;27.36;47.61
28630;BME280;15817;42.130;24.762;2022-09-09T09:33:17;99969.53;;;27.42;47.27
28630;BME280;15817;42.130;24.762;2022-09-09T09:35:48;99969.34;;;27.45;47.78
28630;BME280;15817;42.130;24.762;2022-09-09T09:38:23;99968.09;;;27.61;47.11
28630;BME280;15817;42.130;24.762;2022-09-09T09:40:56;99957.59;;;27.68;46.37
28630;BME280;15817;42.130;24.762;2022-09-09T09:43:35;99950.88;;;27.72;47.52
28630;BME280;15817;42.130;24.762;2022-09-09T09:46:19;99957.28;;;27.84;47.00
28630;BME280;15817;42.130;24.762;2022-09-09T09:48:59;99948.38;;;27.93;47.25
28630;BME280;15817;42.130;24.762;2022-09-09T09:51:29;99955.69;;;27.92;46.50
28630;BME280;15817;42.130;24.762;2022-09-09T09:54:07;99944.31;;;27.98;46.85
28630;BME280;15817;42.130;24.762;2022-09-09T09:56:37;99939.75;;;28.10;47.35
28630;BME280;15817;42.130;24.762;2022-09-09T10:01:53;99941.94;;;28.18;46.56
28630;BME280;15817;42.130;24.762;2022-09-09T10:04:23;99939.28;;;28.16;46.66
28630;BME280;15817;42.130;24.762;2022-09-09T10:06:52;99935.38;;;28.31;46.56
28630;BME280;15817;42.130;24.762;2022-09-09T10:09:29;99920.50;;;28.35;46.33
28630;BME280;15817;42.130;24.762;2022-09-09T10:17:33;99913.75;;;28.39;48.01
28630;BME280;15817;42.130;24.762;2022-09-09T10:22:52;99913.66;;;28.41;46.82
28630;BME280;15817;42.130;24.762;2022-09-09T10:25:38;99917.03;;;28.56;47.12
28630;BME280;15817;42.130;24.762;2022-09-09T10:28:48;99920.41;;;28.59;47.23
28630;BME280;15817;42.130;24.762;2022-09-09T10:35:04;99917.16;;;28.54;47.49
28630;BME280;15817;42.130;24.762;2022-09-09T10:38:01;99918.03;;;28.55;47.20
28630;BME280;15817;42.130;24.762;2022-09-09T10:40:36;99914.31;;;28.56;47.19
28630;BME280;15817;42.130;24.762;2022-09-09T10:48:46;99913.31;;;28.57;47.53
28630;BME280;15817;42.130;24.762;2022-09-09T10:56:33;99897.53;;;28.60;47.00
28630;BME280;15817;42.130;24.762;2022-09-09T10:59:15;99891.06;;;28.72;47.29
28630;BME280;15817;42.130;24.762;2022-09-09T11:04:24;99892.66;;;28.75;46.94
28630;BME280;15817;42.130;24.762;2022-09-09T11:06:54;99891.19;;;28.71;46.62
28630;BME280;15817;42.130;24.762;2022-09-09T11:09:32;99878.72;;;28.67;46.37
28630;BME280;15817;42.130;24.762;2022-09-09T11:12:01;99877.72;;;28.68;46.99
28630;BME280;15817;42.130;24.762;2022-09-09T11:20:47;99871.91;;;28.61;47.13
28630;BME280;15817;42.130;24.762;2022-09-09T11:23:56;99863.06;;;28.69;46.79
28630;BME280;15817;42.130;24.762;2022-09-09T11:26:47;99852.34;;;28.77;46.91
28630;BME280;15817;42.130;24.762;2022-09-09T11:38:28;99848.53;;;28.79;46.44
28630;BME280;15817;42.130;24.762;2022-09-09T11:41:07;99838.56;;;28.78;46.72
28630;BME280;15817;42.130;24.762;2022-09-09T11:43:45;99847.28;;;28.84;46.48
28630;BME280;15817;42.130;24.762;2022-09-09T11:46:14;99844.56;;;28.84;45.82
28630;BME280;15817;42.130;24.762;2022-09-09T11:48:59;99835.56;;;28.70;45.87
28630;BME280;15817;42.130;24.762;2022-09-09T11:51:28;99837.44;;;28.70;46.08
28630;BME280;15817;42.130;24.762;2022-09-09T11:53:58;99836.16;;;28.63;46.44
28630;BME280;15817;42.130;24.762;2022-09-09T11:56:32;99832.53;;;28.40;47.19
28630;BME280;15817;42.130;24.762;2022-09-09T12:04:22;99825.72;;;28.34;47.49
28630;BME280;15817;42.130;24.762;2022-09-09T12:09:51;99812.25;;;28.76;47.56
28630;BME280;15817;42.130;24.762;2022-09-09T12:12:30;99812.25;;;28.76;46.65
28630;BME280;15817;42.130;24.762;2022-09-09T12:15:01;99812.16;;;28.77;46.30
28630;BME280;15817;42.130;24.762;2022-09-09T12:17:30;99806.03;;;28.74;46.97
28630;BME280;15817;42.130;24.762;2022-09-09T12:23:15;99794.09;;;28.41;47.58
28630;BME280;15817;42.130;24.762;2022-09-09T12:26:22;99796.03;;;28.17;48.76
28630;BME280;15817;42.130;24.762;2022-09-09T12:31:40;99786.09;;;28.16;48.82
28630;BME280;15817;42.130;24.762;2022-09-09T12:34:17;99771.41;;;28.06;48.53
28630;BME280;15817;42.130;24.762;2022-09-09T12:36:53;99775.53;;;28.00;48.58
28630;BME280;15817;42.130;24.762;2022-09-09T12:39:34;99782.00;;;27.99;47.99
28630;BME280;15817;42.130;24.762;2022-09-09T12:42:01;99775.75;;;27.97;48.44
28630;BME280;15817;42.130;24.762;2022-09-09T12:44:30;99780.47;;;27.95;48.90
28630;BME280;15817;42.130;24.762;2022-09-09T12:46:59;99778.72;;;27.94;48.38
28630;BME280;15817;42.130;24.762;2022-09-09T12:49:30;99772.66;;;27.91;48.37
28630;BME280;15817;42.130;24.762;2022-09-09T12:52:04;99772.78;;;27.89;49.07
28630;BME280;15817;42.130;24.762;2022-09-09T12:54:42;99770.50;;;27.83;49.47
28630;BME280;15817;42.130;24.762;2022-09-09T12:57:12;99767.88;;;27.82;49.19
28630;BME280;15817;42.130;24.762;2022-09-09T12:59:43;99761.81;;;27.78;49.71
28630;BME280;15817;42.130;24.762;2022-09-09T13:02:24;99747.28;;;27.89;49.93
28630;BME280;15817;42.130;24.762;2022-09-09T13:04:53;99748.19;;;28.00;50.16
28630;BME280;15817;42.130;24.762;2022-09-09T13:07:20;99743.47;;;28.14;49.11
28630;BME280;15817;42.130;24.762;2022-09-09T13:09:53;99738.00;;;28.14;48.17
28630;BME280;15817;42.130;24.762;2022-09-09T13:12:31;99749.47;;;28.19;49.41
28630;BME280;15817;42.130;24.762;2022-09-09T13:15:04;99747.19;;;28.13;49.25
28630;BME280;15817;42.130;24.762;2022-09-09T13:17:42;99734.13;;;28.05;49.55
28630;BME280;15817;42.130;24.762;2022-09-09T13:20:17;99727.28;;;27.99;50.20
28630;BME280;15817;42.130;24.762;2022-09-09T13:22:48;99728.41;;;28.08;49.24
28630;BME280;15817;42.130;24.762;2022-09-09T13:25:24;99724.34;;;28.14;49.06
28630;BME280;15817;42.130;24.762;2022-09-09T13:28:01;99726.31;;;28.11;49.65
28630;BME280;15817;42.130;24.762;2022-09-09T13:30:36;99725.19;;;28.03;49.68
28630;BME280;15817;42.130;24.762;2022-09-09T13:33:17;99729.53;;;28.05;49.63
28630;BME280;15817;42.130;24.762;2022-09-09T13:35:51;99724.81;;;28.07;49.53
28630;BME280;15817;42.130;24.762;2022-09-09T13:38:19;99728.41;;;28.08;49.34
28630;BME280;15817;42.130;24.762;2022-09-09T13:41:04;99712.41;;;28.03;50.27
28630;BME280;15817;42.130;24.762;2022-09-09T13:43:41;99705.78;;;27.95;48.94
28630;BME280;15817;42.130;24.762;2022-09-09T13:46:31;99711.50;;;27.92;50.17
28630;BME280;15817;42.130;24.762;2022-09-09T13:49:19;99706.53;;;27.86;49.61
28630;BME280;15817;42.130;24.762;2022-09-09T13:51:48;99702.91;;;27.85;49.52
28630;BME280;15817;42.130;24.762;2022-09-09T13:54:24;99698.19;;;27.87;50.75
28630;BME280;15817;42.130;24.762;2022-09-09T13:56:57;99705.03;;;27.93;51.00
28630;BME280;15817;42.130;24.762;2022-09-09T13:59:46;99693.59;;;27.99;51.10
28630;BME280;15817;42.130;24.762;2022-09-09T14:02:20;99693.59;;;27.99;50.17
28630;BME280;15817;42.130;24.762;2022-09-09T14:05:06;99696.22;;;28.00;49.91
28630;BME280;15817;42.130;24.762;2022-09-09T14:07:35;99702.69;;;27.99;50.65
28630;BME280;15817;42.130;24.762;2022-09-09T14:10:06;99694.25;;;27.91;49.69
28630;BME280;15817;42.130;24.762;2022-09-09T14:12:32;99698.56;;;27.94;50.63
28630;BME280;15817;42.130;24.762;2022-09-09T14:14:58;99695.22;;;27.90;50.69
28630;BME280;15817;42.130;24.762;2022-09-09T14:17:25;99691.34;;;27.82;52.45
28630;BME280;15817;42.130;24.762;2022-09-09T14:19:54;99686.50;;;27.74;51.09
28630;BME280;15817;42.130;24.762;2022-09-09T14:22:22;99695.94;;;27.70;51.59
28630;BME280;15817;42.130;24.762;2022-09-09T14:24:48;99685.63;;;27.62;52.03
28630;BME280;15817;42.130;24.762;2022-09-09T14:27:14;99686.72;;;27.60;51.87
28630;BME280;15817;42.130;24.762;2022-09-09T14:29:41;99693.94;;;27.61;51.40
28630;BME280;15817;42.130;24.762;2022-09-09T14:32:12;99693.69;;;27.64;51.69
28630;BME280;15817;42.130;24.762;2022-09-09T14:34:37;99672.94;;;27.61;51.58
28630;BME280;15817;42.130;24.762;2022-09-09T14:37:03;99676.44;;;27.63;51.70
28630;BME280;15817;42.130;24.762;2022-09-09T14:39:33;99668.72;;;27.57;51.91
28630;BME280;15817;42.130;24.762;2022-09-09T14:42:01;99687.47;;;27.62;51.71
28630;BME280;15817;42.130;24.762;2022-09-09T14:44:37;99688.69;;;27.58;51.61
28630;BME280;15817;42.130;24.762;2022-09-09T14:47:06;99686.59;;;27.61;51.25
28630;BME280;15817;42.130;24.762;2022-09-09T14:49:36;99681.25;;;27.60;51.48
28630;BME280;15817;42.130;24.762;2022-09-09T14:52:05;99678.41;;;27.61;52.30
28630;BME280;15817;42.130;24.762;2022-09-09T14:54:32;99664.44;;;27.53;51.50
28630;BME280;15817;42.130;24.762;2022-09-09T14:56:58;99668.16;;;27.52;51.07
28630;BME280;15817;42.130;24.762;2022-09-09T14:59:24;99670.59;;;27.57;51.36
28630;BME280;15817;42.130;24.762;2022-09-09T15:01:52;99672.53;;;27.55;51.38
28630;BME280;15817;42.130;24.762;2022-09-09T15:04:18;99681.38;;;27.58;51.66
28630;BME280;15817;42.130;24.762;2022-09-09T15:06:45;99678.78;;;27.57;51.95
28630;BME280;15817;42.130;24.762;2022-09-09T15:09:16;99674.50;;;27.53;52.27
28630;BME280;15817;42.130;24.762;2022-09-09T15:11:42;99671.66;;;27.54;52.38
28630;BME280;15817;42.130;24.762;2022-09-09T15:14:09;99663.94;;;27.48;52.53
28630;BME280;15817;42.130;24.762;2022-09-09T15:16:35;99667.31;;;27.52;52.58
28630;BME280;15817;42.130;24.762;2022-09-09T15:19:02;99679.22;;;27.51;52.63
28630;BME280;15817;42.130;24.762;2022-09-09T15:21:34;99672.25;;;27.47;52.67
28630;BME280;15817;42.130;24.762;2022-09-09T15:24:03;99674.84;;;27.48;52.75